createdAt,value
2017-12-01T00:01:55.696Z,22.33
2017-12-01T00:04:23.473Z,15.60
2017-12-01T00:06:51.019Z,20.47
2017-12-01T00:09:18.621Z,16.90
2017-12-01T00:11:46.547Z,19.60
2017-12-01T00:14:14.085Z,19.53
2017-12-01T00:16:41.763Z,23.37
2017-12-01T00:19:09.388Z,19.33
2017-12-01T00:21:36.951Z,18.30
2017-12-01T00:24:04.578Z,17.03
2017-12-01T00:26:32.139Z,14.13
2017-12-01T00:28:59.734Z,15.03
2017-12-01T00:31:27.318Z,8.57
2017-12-01T00:33:56.779Z,8.67
2017-12-01T00:36:24.394Z,11.00
2017-12-01T00:38:52.191Z,12.63
2017-12-01T00:41:19.749Z,14.00
2017-12-01T00:43:47.304Z,13.20
2017-12-01T00:46:14.842Z,13.10
2017-12-01T00:48:42.406Z,10.17
2017-12-01T00:51:10.157Z,8.87
2017-12-01T00:53:37.790Z,11.57
2017-12-01T00:56:05.345Z,11.77
2017-12-01T00:58:32.929Z,12.30
2017-12-01T01:01:00.499Z,10.40
2017-12-01T01:03:28.087Z,9.47
2017-12-01T01:05:55.609Z,12.83
2017-12-01T01:08:24.129Z,25.40
2017-12-01T01:10:51.684Z,19.80
2017-12-01T01:13:19.206Z,14.23
2017-12-01T01:15:46.790Z,16.30
2017-12-01T01:18:15.214Z,19.67
2017-12-01T01:20:42.775Z,19.20
2017-12-01T01:23:10.387Z,14.80
2017-12-01T01:25:38.017Z,11.60
2017-12-01T01:28:05.545Z,10.73
2017-12-01T01:30:33.153Z,14.30
2017-12-01T01:33:00.726Z,17.27
2017-12-01T01:35:28.324Z,11.07
2017-12-01T01:37:55.927Z,11.80
2017-12-01T01:40:23.489Z,12.87
2017-12-01T01:42:51.061Z,12.37
2017-12-01T01:45:18.694Z,12.80
2017-12-01T01:47:46.260Z,11.00
2017-12-01T01:50:13.779Z,8.47
2017-12-01T01:52:41.361Z,11.90
2017-12-01T01:55:09.572Z,12.97
2017-12-01T01:57:37.208Z,9.03
2017-12-01T02:00:07.105Z,9.43
2017-12-01T02:02:34.652Z,8.43
2017-12-01T02:05:02.268Z,9.87
2017-12-01T02:07:29.862Z,9.30
2017-12-01T02:09:57.410Z,7.67
2017-12-01T02:12:25.174Z,8.90
2017-12-01T02:14:52.758Z,9.97
2017-12-01T02:17:20.915Z,7.07
2017-12-01T02:19:48.478Z,11.97
2017-12-01T02:22:16.096Z,7.03
2017-12-01T02:24:43.677Z,10.83
2017-12-01T02:27:11.266Z,11.30
2017-12-01T02:29:38.937Z,7.80
2017-12-01T02:32:06.547Z,9.23
2017-12-01T02:34:34.143Z,12.03
2017-12-01T02:37:01.698Z,6.23
2017-12-01T02:39:29.277Z,8.30
2017-12-01T02:41:56.842Z,11.10
2017-12-01T02:44:24.427Z,10.50
2017-12-01T02:46:52.043Z,12.03
2017-12-01T02:49:19.611Z,7.97
2017-12-01T02:51:47.156Z,8.20
2017-12-01T02:54:14.718Z,14.47
2017-12-01T02:56:42.284Z,15.20
2017-12-01T02:59:09.833Z,13.40
2017-12-01T03:01:37.435Z,9.60
2017-12-01T03:04:05.000Z,11.80
2017-12-01T03:06:32.551Z,10.00
2017-12-01T03:09:00.109Z,10.17
2017-12-01T03:11:27.682Z,11.83
2017-12-01T03:13:55.200Z,9.50
2017-12-01T03:16:22.816Z,8.20
2017-12-01T03:18:50.372Z,9.50
2017-12-01T03:21:17.930Z,12.73
2017-12-01T03:23:45.518Z,9.10
2017-12-01T03:26:13.079Z,11.60
2017-12-01T03:28:40.610Z,9.73
2017-12-01T03:31:08.219Z,9.93
2017-12-01T03:33:35.778Z,12.70
2017-12-01T03:36:03.360Z,13.70
2017-12-01T03:38:30.929Z,8.80
2017-12-01T03:40:58.458Z,10.43
2017-12-01T03:43:26.049Z,8.10
2017-12-01T03:45:53.641Z,16.90
2017-12-01T03:48:21.198Z,10.90
2017-12-01T03:50:48.745Z,10.20
2017-12-01T03:53:16.450Z,11.60
2017-12-01T03:55:44.035Z,17.03
2017-12-01T03:58:11.601Z,12.43
2017-12-01T04:00:39.209Z,12.20
2017-12-01T04:03:07.000Z,24.67
2017-12-01T04:05:34.554Z,14.40
2017-12-01T04:08:02.145Z,13.03
2017-12-01T04:10:30.003Z,12.27
2017-12-01T04:12:57.663Z,14.03
2017-12-01T04:15:25.330Z,12.03
2017-12-01T04:17:52.901Z,13.47
2017-12-01T04:20:20.496Z,18.07
2017-12-01T04:22:48.071Z,13.47
2017-12-01T04:25:15.628Z,9.60
2017-12-01T04:27:43.177Z,11.27
2017-12-01T04:30:10.995Z,12.53
2017-12-01T04:32:38.581Z,12.90
2017-12-01T04:35:06.169Z,10.30
2017-12-01T04:37:33.732Z,13.57
2017-12-01T04:40:01.354Z,11.67
2017-12-01T04:42:28.893Z,10.97
2017-12-01T04:44:56.526Z,35.77
2017-12-01T04:47:24.119Z,11.40
2017-12-01T04:49:51.680Z,9.80
2017-12-01T04:52:19.350Z,8.53
2017-12-01T04:54:46.926Z,12.67
2017-12-01T04:57:15.193Z,12.40
2017-12-01T04:59:42.778Z,13.97
2017-12-01T05:02:10.394Z,16.00
2017-12-01T05:04:37.951Z,16.47
2017-12-01T05:07:05.530Z,17.80
2017-12-01T05:09:33.216Z,13.33
2017-12-01T05:12:01.395Z,14.87
2017-12-01T05:14:28.984Z,18.23
2017-12-01T05:16:56.606Z,21.13
2017-12-01T05:19:24.205Z,14.70
2017-12-01T05:21:52.762Z,17.23
2017-12-01T05:24:20.362Z,15.90
2017-12-01T05:26:47.929Z,20.93
2017-12-01T05:29:15.495Z,14.33
2017-12-01T05:31:43.080Z,17.63
2017-12-01T05:34:10.668Z,13.00
2017-12-01T05:36:38.865Z,13.20
2017-12-01T05:39:06.469Z,24.70
2017-12-01T05:41:34.022Z,16.00
2017-12-01T05:44:01.565Z,15.43
2017-12-01T05:46:29.202Z,25.30
2017-12-01T05:48:56.735Z,20.67
2017-12-01T05:51:24.334Z,18.80
2017-12-01T05:53:51.926Z,19.17
2017-12-01T05:56:19.535Z,13.20
2017-12-01T05:58:47.097Z,20.60
2017-12-01T06:01:14.701Z,20.43
2017-12-01T06:03:42.321Z,23.47
2017-12-01T06:06:09.895Z,24.47
2017-12-01T06:08:37.474Z,21.30
2017-12-01T06:11:05.327Z,27.90
2017-12-01T06:13:32.925Z,23.23
2017-12-01T06:16:00.636Z,22.60
2017-12-01T06:18:28.297Z,24.77
2017-12-01T06:20:55.887Z,28.07
2017-12-01T06:23:23.477Z,26.20
2017-12-01T06:25:51.068Z,26.87
2017-12-01T06:28:18.670Z,21.00
2017-12-01T06:30:46.277Z,18.20
2017-12-01T06:33:13.823Z,21.07
2017-12-01T06:35:41.382Z,20.30
2017-12-01T06:38:08.955Z,25.53
2017-12-01T06:40:37.256Z,25.77
2017-12-01T06:43:05.667Z,26.20
2017-12-01T06:45:38.305Z,23.40
2017-12-01T06:48:05.918Z,23.90
2017-12-01T06:50:33.528Z,32.37
2017-12-01T06:53:01.129Z,24.70
2017-12-01T06:55:28.846Z,27.83
2017-12-01T06:57:56.419Z,19.47
2017-12-01T07:00:24.100Z,22.10
2017-12-01T07:02:51.924Z,30.00
2017-12-01T07:05:20.296Z,21.30
2017-12-01T07:07:47.909Z,18.97
2017-12-01T07:10:15.467Z,19.70
2017-12-01T07:12:43.037Z,19.07
2017-12-01T07:15:10.589Z,15.70
2017-12-01T07:17:38.150Z,23.00
2017-12-01T07:20:05.909Z,17.97
2017-12-01T07:22:33.818Z,19.40
2017-12-01T07:25:01.476Z,13.77
2017-12-01T07:27:29.091Z,16.70
2017-12-01T07:29:56.889Z,15.10
2017-12-01T07:32:25.157Z,13.10
2017-12-01T07:34:52.731Z,13.50
2017-12-01T07:37:20.291Z,12.00
2017-12-01T07:39:47.920Z,11.87
2017-12-01T07:42:15.545Z,7.60
2017-12-01T07:44:48.678Z,7.80
2017-12-01T07:47:16.274Z,9.67
2017-12-01T07:49:44.035Z,8.37
2017-12-01T07:52:11.663Z,10.10
2017-12-01T07:54:39.218Z,7.93
2017-12-01T07:57:06.989Z,7.43
2017-12-01T07:59:34.597Z,9.60
2017-12-01T08:02:02.259Z,7.30
2017-12-01T08:04:30.242Z,8.70
2017-12-01T08:06:57.797Z,7.80
2017-12-01T08:09:25.405Z,8.20
2017-12-01T08:11:53.013Z,10.57
2017-12-01T08:14:20.663Z,10.47
2017-12-01T08:17:00.210Z,8.40
2017-12-01T08:19:27.778Z,9.50
2017-12-01T08:22:07.237Z,10.50
2017-12-01T08:24:46.582Z,9.27
2017-12-01T08:27:14.133Z,8.60
2017-12-01T08:29:41.744Z,10.67
2017-12-01T08:32:09.313Z,14.50
2017-12-01T08:34:36.869Z,11.13
2017-12-01T08:37:04.624Z,11.50
2017-12-01T08:39:32.244Z,15.00
2017-12-01T08:42:00.011Z,20.30
2017-12-01T08:44:27.592Z,23.53
2017-12-01T08:46:55.162Z,18.70
2017-12-01T08:49:23.013Z,18.13
2017-12-01T08:51:50.775Z,13.07
2017-12-01T08:54:18.659Z,14.30
2017-12-01T08:56:47.065Z,16.57
2017-12-01T08:59:14.662Z,14.70
2017-12-01T09:01:42.283Z,14.43
2017-12-01T09:04:09.890Z,23.37
2017-12-01T09:06:37.488Z,14.50
2017-12-01T09:09:05.098Z,15.27
2017-12-01T09:11:32.725Z,17.97
2017-12-01T09:14:00.279Z,12.30
2017-12-01T09:16:27.851Z,12.70
2017-12-01T09:18:55.663Z,12.37
2017-12-01T09:21:23.254Z,12.20
2017-12-01T09:23:50.809Z,13.10
2017-12-01T09:26:18.575Z,19.03
2017-12-01T09:28:46.179Z,15.60
2017-12-01T09:31:13.810Z,14.77
2017-12-01T09:33:41.627Z,15.07
2017-12-01T09:36:09.408Z,22.97
2017-12-01T09:38:37.012Z,18.50
2017-12-01T09:41:04.633Z,18.47
2017-12-01T09:43:32.454Z,40.93
2017-12-01T09:46:00.059Z,20.83
2017-12-01T09:48:27.640Z,19.53
2017-12-01T09:50:55.394Z,27.57
2017-12-01T09:53:23.001Z,25.13
2017-12-01T09:55:50.807Z,27.60
2017-12-01T09:58:18.385Z,20.00
2017-12-01T10:00:46.029Z,22.70
2017-12-01T10:03:13.621Z,18.87
2017-12-01T10:05:41.222Z,13.20
2017-12-01T10:08:08.844Z,16.20
2017-12-01T10:10:36.457Z,17.43
2017-12-01T10:13:04.239Z,19.43
2017-12-01T10:15:31.862Z,22.00
2017-12-01T10:17:59.627Z,21.90
2017-12-01T10:20:27.222Z,18.63
2017-12-01T10:22:55.606Z,20.60
2017-12-01T10:25:23.378Z,24.80
2017-12-01T10:27:51.003Z,29.87
2017-12-01T10:30:18.578Z,28.37
2017-12-01T10:32:46.339Z,29.33
2017-12-01T10:35:13.861Z,27.43
2017-12-01T10:37:41.694Z,28.87
2017-12-01T10:40:09.271Z,33.07
2017-12-01T10:42:37.053Z,23.40
2017-12-01T10:45:04.664Z,28.80
2017-12-01T10:47:32.273Z,25.30
2017-12-01T10:50:00.031Z,20.70
2017-12-01T10:52:27.600Z,28.47
2017-12-01T10:54:55.179Z,34.80
2017-12-01T10:57:22.773Z,36.67
2017-12-01T10:59:50.585Z,29.70
2017-12-01T11:02:18.217Z,27.77
2017-12-01T11:04:46.041Z,24.27
2017-12-01T11:07:13.641Z,25.40
2017-12-01T11:09:41.261Z,28.20
2017-12-01T11:12:09.034Z,26.77
2017-12-01T11:14:36.630Z,27.90
2017-12-01T11:17:04.217Z,32.67
2017-12-01T11:19:31.796Z,22.77
2017-12-01T11:21:59.546Z,25.00
2017-12-01T11:24:27.122Z,32.23
2017-12-01T11:26:54.727Z,31.77
2017-12-01T11:29:22.518Z,22.50
2017-12-01T11:31:50.076Z,23.10
2017-12-01T11:34:17.650Z,21.43
2017-12-01T11:36:45.242Z,22.30
2017-12-01T11:39:13.049Z,32.27
2017-12-01T11:41:40.578Z,29.93
2017-12-01T11:44:08.339Z,23.93
2017-12-01T11:46:35.975Z,25.93
2017-12-01T11:49:11.198Z,21.40
2017-12-01T11:51:39.815Z,27.00
2017-12-01T11:54:14.827Z,22.27
2017-12-01T11:56:42.432Z,20.50
2017-12-01T11:59:09.966Z,18.00
2017-12-01T12:01:37.567Z,18.63
2017-12-01T12:04:05.476Z,20.53
2017-12-01T12:06:40.842Z,27.27
2017-12-01T12:09:08.668Z,33.33
2017-12-01T12:11:40.128Z,25.93
2017-12-01T12:14:38.887Z,25.23
2017-12-01T12:17:10.088Z,21.17
2017-12-01T12:19:37.725Z,27.00
2017-12-01T12:22:12.597Z,21.43
2017-12-01T12:24:43.859Z,20.73
2017-12-01T12:27:11.486Z,19.17
2017-12-01T12:29:39.562Z,24.13
2017-12-01T12:32:07.130Z,23.40
2017-12-01T12:34:34.745Z,18.07
2017-12-01T12:37:02.365Z,21.53
2017-12-01T12:39:30.184Z,24.23
2017-12-01T12:42:05.395Z,30.40
2017-12-01T12:44:32.979Z,26.60
2017-12-01T12:47:00.575Z,29.20
2017-12-01T12:49:28.152Z,20.17
2017-12-01T12:51:55.812Z,19.47
2017-12-01T12:54:23.606Z,25.53
2017-12-01T12:56:51.445Z,27.20
2017-12-01T12:59:19.059Z,26.47
2017-12-01T13:01:46.664Z,24.50
2017-12-01T13:04:14.472Z,21.53
2017-12-01T13:06:49.417Z,26.03
2017-12-01T13:09:17.264Z,20.53
2017-12-01T13:11:52.703Z,14.50
2017-12-01T13:14:20.260Z,17.33
2017-12-01T13:16:47.831Z,19.30
2017-12-01T13:19:31.009Z,20.80
2017-12-01T13:21:59.014Z,20.27
2017-12-01T13:24:33.797Z,22.97
2017-12-01T13:27:01.407Z,21.23
2017-12-01T13:29:28.966Z,22.80
2017-12-01T13:31:56.568Z,26.50
2017-12-01T13:34:24.205Z,24.23
2017-12-01T13:36:51.831Z,29.73
2017-12-01T13:39:19.433Z,40.10
2017-12-01T13:41:47.024Z,36.70
2017-12-01T13:44:14.684Z,27.47
2017-12-01T13:46:42.284Z,25.07
2017-12-01T13:49:09.864Z,33.97
2017-12-01T13:51:37.643Z,26.03
2017-12-01T13:54:05.239Z,28.00
2017-12-01T13:56:32.861Z,27.00
2017-12-01T13:59:00.470Z,29.83
2017-12-01T14:01:28.261Z,31.67
2017-12-01T14:03:55.830Z,32.70
2017-12-01T14:06:23.428Z,37.03
2017-12-01T14:08:51.006Z,33.10
2017-12-01T14:11:18.669Z,28.47
2017-12-01T14:13:46.417Z,28.27
2017-12-01T14:16:13.991Z,25.93
2017-12-01T14:18:41.541Z,27.63
2017-12-01T14:21:09.121Z,25.53
2017-12-01T14:23:36.685Z,26.33
2017-12-01T14:26:04.233Z,26.20
2017-12-01T14:28:31.816Z,26.87
2017-12-01T14:30:59.421Z,28.97
2017-12-01T14:33:27.205Z,31.20
2017-12-01T14:35:54.964Z,28.40
2017-12-01T14:38:23.434Z,32.13
2017-12-01T14:40:51.130Z,24.60
2017-12-01T14:43:18.770Z,22.30
2017-12-01T14:45:46.541Z,20.93
2017-12-01T14:48:14.296Z,21.50
2017-12-01T14:50:42.789Z,21.50
2017-12-01T14:53:10.429Z,18.73
2017-12-01T14:55:38.014Z,23.40
2017-12-01T14:58:05.549Z,27.40
2017-12-01T15:00:33.387Z,29.33
2017-12-01T15:03:01.109Z,23.63
2017-12-01T15:05:28.650Z,17.27
2017-12-01T15:07:56.386Z,21.37
2017-12-01T15:10:24.048Z,22.00
2017-12-01T15:12:53.313Z,28.40
2017-12-01T15:15:21.024Z,25.33
2017-12-01T15:17:48.808Z,25.37
2017-12-01T15:20:16.349Z,25.00
2017-12-01T15:22:43.991Z,21.67
2017-12-01T15:25:11.828Z,20.40
2017-12-01T15:27:39.484Z,21.87
2017-12-01T15:30:08.008Z,20.60
2017-12-01T15:32:35.566Z,23.20
2017-12-01T15:35:03.248Z,26.40
2017-12-01T15:37:30.917Z,32.80
2017-12-01T15:39:58.515Z,21.83
2017-12-01T15:42:26.284Z,26.13
2017-12-01T15:44:54.120Z,25.70
2017-12-01T15:47:21.721Z,27.80
2017-12-01T15:49:49.470Z,23.10
2017-12-01T15:52:17.037Z,20.83
2017-12-01T15:54:44.608Z,21.93
2017-12-01T15:57:12.219Z,20.63
2017-12-01T15:59:40.160Z,22.63
2017-12-01T16:02:07.796Z,26.90
2017-12-01T16:04:35.496Z,28.30
2017-12-01T16:07:04.063Z,23.23
2017-12-01T16:09:31.663Z,22.83
2017-12-01T16:11:59.228Z,25.90
2017-12-01T16:14:26.847Z,25.13
2017-12-01T16:16:54.522Z,24.30
2017-12-01T16:19:22.460Z,24.63
2017-12-01T16:21:50.667Z,27.13
2017-12-01T16:24:18.271Z,28.40
2017-12-01T16:26:45.871Z,36.37
2017-12-01T16:29:13.495Z,25.03
2017-12-01T16:31:41.196Z,25.40
2017-12-01T16:34:08.907Z,27.63
2017-12-01T16:36:36.833Z,32.80
2017-12-01T16:39:04.487Z,50.93
2017-12-01T16:41:32.094Z,45.40
2017-12-01T16:44:06.876Z,50.67
2017-12-01T16:46:34.484Z,39.37
2017-12-01T16:49:02.095Z,36.60
2017-12-01T16:51:29.725Z,36.30
2017-12-01T16:53:57.494Z,35.77
2017-12-01T16:56:25.138Z,41.13
2017-12-01T16:58:52.723Z,35.03
2017-12-01T17:01:21.265Z,28.60
2017-12-01T17:03:48.878Z,30.40
2017-12-01T17:06:17.296Z,39.93
2017-12-01T17:08:45.032Z,31.63
2017-12-01T17:11:50.216Z,40.43
2017-12-01T17:14:28.522Z,29.43
2017-12-01T17:16:56.141Z,38.70
2017-12-01T17:19:23.775Z,22.83
2017-12-01T17:21:52.274Z,29.13
2017-12-01T17:24:27.633Z,25.90
2017-12-01T17:26:55.240Z,26.03
2017-12-01T17:29:26.259Z,26.50
2017-12-01T17:31:57.653Z,25.37
2017-12-01T17:37:15.802Z,28.23
2017-12-01T17:39:44.097Z,27.67
2017-12-01T17:42:11.878Z,30.40
2017-12-01T17:44:43.080Z,33.47
2017-12-01T17:47:10.873Z,32.67
2017-12-01T17:49:38.690Z,35.23
2017-12-01T17:56:06.264Z,33.53
2017-12-01T18:05:15.163Z,30.07
2017-12-01T18:07:42.964Z,35.33
2017-12-01T18:10:11.463Z,35.40
2017-12-01T18:12:39.117Z,28.87
2017-12-01T18:15:06.740Z,30.90
2017-12-01T18:17:34.421Z,31.00
2017-12-01T18:20:02.148Z,34.83
2017-12-01T18:22:29.934Z,30.80
2017-12-01T18:24:58.948Z,33.93
2017-12-01T18:27:26.552Z,31.83
2017-12-01T18:30:24.887Z,31.80
2017-12-01T18:33:00.478Z,28.70
2017-12-01T18:35:28.560Z,31.70
2017-12-01T18:37:56.185Z,31.23
2017-12-01T18:40:23.837Z,30.60
2017-12-01T18:42:51.866Z,27.30
2017-12-01T18:48:05.678Z,25.20
2017-12-01T18:50:34.948Z,23.63
2017-12-01T18:53:03.363Z,26.13
2017-12-01T18:55:31.400Z,20.70
2017-12-01T18:57:59.060Z,20.80
2017-12-01T19:00:26.683Z,22.47
2017-12-01T19:03:01.438Z,20.50
2017-12-01T19:05:29.262Z,20.80
2017-12-01T19:11:28.313Z,16.17
2017-12-01T19:13:55.882Z,21.50
2017-12-01T19:16:23.573Z,18.57
2017-12-01T19:18:52.124Z,17.20
2017-12-01T19:21:20.347Z,18.10
2017-12-01T19:23:49.278Z,17.23
2017-12-01T19:26:17.822Z,16.80
2017-12-01T19:28:45.559Z,18.73
2017-12-01T19:31:14.097Z,18.43
2017-12-01T19:33:42.583Z,15.37
2017-12-01T19:36:10.134Z,16.03
2017-12-01T19:38:38.482Z,12.23
2017-12-01T19:41:08.435Z,19.07
2017-12-01T19:43:37.597Z,12.87
2017-12-01T19:46:06.755Z,9.90
2017-12-01T19:48:37.832Z,11.20
2017-12-01T19:51:06.940Z,15.70
2017-12-01T19:53:36.270Z,15.07
2017-12-01T19:56:04.284Z,11.87
2017-12-01T19:58:33.948Z,12.17
2017-12-01T20:01:08.118Z,15.20
2017-12-01T20:03:38.638Z,13.00
2017-12-01T20:06:07.723Z,11.93
2017-12-01T20:08:36.565Z,12.77
2017-12-01T20:11:09.736Z,11.50
2017-12-01T20:13:39.252Z,14.43
2017-12-01T20:16:08.514Z,8.77
2017-12-01T20:18:36.558Z,14.50
2017-12-01T20:21:04.326Z,8.70
2017-12-01T20:23:32.634Z,8.23
2017-12-01T20:26:00.494Z,9.67
2017-12-01T20:28:31.408Z,11.80
2017-12-01T20:31:00.286Z,11.80
2017-12-01T20:33:27.927Z,11.77
2017-12-01T20:36:16.143Z,12.93
2017-12-01T20:38:51.701Z,14.83
2017-12-01T20:41:19.402Z,19.10
2017-12-01T20:43:47.193Z,18.50
2017-12-01T20:46:15.457Z,18.00
2017-12-01T20:48:43.217Z,16.97
2017-12-01T20:51:10.992Z,16.50
2017-12-01T20:53:38.585Z,18.57
2017-12-01T20:56:06.355Z,19.37
2017-12-01T20:58:34.220Z,18.00
2017-12-01T21:01:01.893Z,19.20
2017-12-01T21:07:00.143Z,24.53
2017-12-01T21:09:27.943Z,23.80
2017-12-01T21:12:29.753Z,22.23
2017-12-01T21:14:58.072Z,22.00
2017-12-01T21:17:26.616Z,21.00
2017-12-01T21:19:54.361Z,20.13
2017-12-01T21:22:22.610Z,20.03
2017-12-01T21:24:50.194Z,22.33
2017-12-01T21:27:17.839Z,20.90
2017-12-01T21:29:46.292Z,15.80
2017-12-01T21:32:14.392Z,12.97
2017-12-01T21:34:42.009Z,12.23
2017-12-01T21:37:09.705Z,11.40
2017-12-01T21:39:37.306Z,13.60
2017-12-01T21:42:04.914Z,14.80
2017-12-01T21:44:32.564Z,12.60
2017-12-01T21:47:00.237Z,13.03
2017-12-01T21:49:28.227Z,14.77
2017-12-01T21:51:56.783Z,12.03
2017-12-01T21:54:24.395Z,15.03
2017-12-01T21:56:52.061Z,21.20
2017-12-01T21:59:20.091Z,12.67
2017-12-01T22:01:47.730Z,14.53
2017-12-01T22:04:15.362Z,13.40
2017-12-01T22:06:43.010Z,13.70
2017-12-01T22:09:10.597Z,16.43
2017-12-01T22:11:38.202Z,15.73
2017-12-01T22:14:06.342Z,13.50
2017-12-01T22:16:33.974Z,16.73
2017-12-01T22:19:01.519Z,19.90
2017-12-01T22:21:29.067Z,14.50
2017-12-01T22:23:56.657Z,13.97
2017-12-01T22:26:24.258Z,15.53
2017-12-01T22:28:51.893Z,14.83
2017-12-01T22:31:19.469Z,12.27
2017-12-01T22:33:47.063Z,15.57
2017-12-01T22:36:14.844Z,9.80
2017-12-01T22:38:42.500Z,12.10
2017-12-01T22:41:10.302Z,10.17
2017-12-01T22:43:38.086Z,12.90
2017-12-01T22:46:05.716Z,9.97
2017-12-01T22:48:33.498Z,9.00
2017-12-01T22:51:01.056Z,9.90
2017-12-01T22:53:28.646Z,9.30
2017-12-01T22:55:56.212Z,13.90
2017-12-01T22:58:24.193Z,10.67
2017-12-01T23:00:51.876Z,8.53
2017-12-01T23:03:19.597Z,9.90
2017-12-01T23:05:47.801Z,9.60
2017-12-01T23:08:15.457Z,12.67
2017-12-01T23:10:43.039Z,12.57
2017-12-01T23:13:10.900Z,12.03
2017-12-01T23:15:38.803Z,10.00
2017-12-01T23:18:07.366Z,10.30
2017-12-01T23:20:35.183Z,10.47
2017-12-01T23:23:03.252Z,13.90
2017-12-01T23:25:30.860Z,10.20
2017-12-01T23:27:58.441Z,11.80
2017-12-01T23:30:26.040Z,11.63
2017-12-01T23:33:00.981Z,11.43
2017-12-01T23:35:30.179Z,11.50
2017-12-01T23:37:57.964Z,10.33
2017-12-01T23:47:08.494Z,11.07
2017-12-01T23:49:36.294Z,11.20
2017-12-01T23:52:06.228Z,7.67
2017-12-01T23:54:41.065Z,7.83
2017-12-01T23:57:08.698Z,7.40
2017-12-01T23:59:36.461Z,7.20
